Kezdőlap
METAR-TAF:

METAR-TAF

Repülőterek :

New Ulm Municipal Airport

New Ulm, Minnesota, Amerikai Egyesült Államok

földrajzi szélesség: 44-19N, földrajzi hosszúság: 094-30W, magasság: 308 m

Jelenlegi meteorológiai megfigyelések

A jelentés 11 perccel ezelõtt készült, 15:35 UTC
Kelet-északkeleti szél 3 kt
Hőmérséklet 11°C
Páratartalom 28%
Légköri nyomás 1030 hPa
Látótávolság: 16.1 km
Derült ég

METAR: KULM 111535Z AUTO 07003KT 10SM CLR 11/M07 A3041 RMK AO2

Idő: 10:46 (15:46 UTC)


TAF: hiányzik

Meteorológiai megfigyelések és előrejelzések több, mint 4000 repülőtéren (METAR és TAF jelentéseket).

A térképen piros és sárga pontok jelzik az elérhető meteorológiai állomásokat.

Mozgassa az egeret a pont fölött, hogy megjelenjen az állomás neve.

Azután kattintson az időjárási megfigyelések és előrejelzések megtekintéséhez.

A térkép megváltoztatása: kattintson a fekete keresztel jelölt zöld gombra ráközelítéshez, a vonallal jelölt zöld gombra távolításhoz, vagy a zöld nyilakra a szomszédos térképek eléréséhez.


METAR-TAF: